sensor_id;sensor_type;location;lat;lon;timestamp;temperature;humidity
1568;DHT22;777;47.156;8.326;2022-10-03T00:00:15;13.10;99.90
1568;DHT22;777;47.156;8.326;2022-10-03T00:05:57;13.10;99.90
1568;DHT22;777;47.156;8.326;2022-10-03T00:09:04;13.10;99.90
1568;DHT22;777;47.156;8.326;2022-10-03T00:11:44;13.10;99.90
1568;DHT22;777;47.156;8.326;2022-10-03T00:14:20;13.10;99.90
1568;DHT22;777;47.156;8.326;2022-10-03T00:16:55;13.10;99.90
1568;DHT22;777;47.156;8.326;2022-10-03T00:19:34;13.10;99.90
1568;DHT22;777;47.156;8.326;2022-10-03T00:22:14;13.10;99.90
1568;DHT22;777;47.156;8.326;2022-10-03T00:24:53;13.10;99.90
1568;DHT22;777;47.156;8.326;2022-10-03T00:27:31;13.00;99.90
1568;DHT22;777;47.156;8.326;2022-10-03T00:30:16;13.00;99.90
1568;DHT22;777;47.156;8.326;2022-10-03T00:33:08;13.00;99.90
1568;DHT22;777;47.156;8.326;2022-10-03T00:35:51;13.00;99.90
1568;DHT22;777;47.156;8.326;2022-10-03T00:41:38;13.00;99.90
1568;DHT22;777;47.156;8.326;2022-10-03T00:44:40;13.00;99.90
1568;DHT22;777;47.156;8.326;2022-10-03T00:47:27;13.00;99.90
1568;DHT22;777;47.156;8.326;2022-10-03T00:53:19;13.00;99.90
1568;DHT22;777;47.156;8.326;2022-10-03T00:56:00;13.00;99.90
1568;DHT22;777;47.156;8.326;2022-10-03T01:01:34;13.10;99.90
1568;DHT22;777;47.156;8.326;2022-10-03T01:04:13;13.10;99.90
1568;DHT22;777;47.156;8.326;2022-10-03T01:06:46;13.10;99.90
1568;DHT22;777;47.156;8.326;2022-10-03T01:09:33;13.10;99.90
1568;DHT22;777;47.156;8.326;2022-10-03T01:12:15;13.10;99.90
1568;DHT22;777;47.156;8.326;2022-10-03T01:15:04;13.20;99.90
1568;DHT22;777;47.156;8.326;2022-10-03T01:17:37;13.20;99.90
1568;DHT22;777;47.156;8.326;2022-10-03T01:20:29;13.30;99.90
1568;DHT22;777;47.156;8.326;2022-10-03T01:23:45;13.30;99.90
1568;DHT22;777;47.156;8.326;2022-10-03T01:26:49;13.30;99.90
1568;DHT22;777;47.156;8.326;2022-10-03T01:29:24;13.30;99.90
1568;DHT22;777;47.156;8.326;2022-10-03T01:32:13;13.30;99.90
1568;DHT22;777;47.156;8.326;2022-10-03T01:34:50;13.30;99.90
1568;DHT22;777;47.156;8.326;2022-10-03T01:37:24;13.30;99.90
1568;DHT22;777;47.156;8.326;2022-10-03T01:39:58;13.30;99.90
1568;DHT22;777;47.156;8.326;2022-10-03T01:42:36;13.30;99.90
1568;DHT22;777;47.156;8.326;2022-10-03T01:45:13;13.40;99.90
1568;DHT22;777;47.156;8.326;2022-10-03T01:47:46;13.40;99.90
1568;DHT22;777;47.156;8.326;2022-10-03T01:50:22;13.40;99.90
1568;DHT22;777;47.156;8.326;2022-10-03T01:52:56;13.40;99.90
1568;DHT22;777;47.156;8.326;2022-10-03T01:55:32;13.40;99.90
1568;DHT22;777;47.156;8.326;2022-10-03T01:58:06;13.40;99.90
1568;DHT22;777;47.156;8.326;2022-10-03T02:00:43;13.40;99.90
1568;DHT22;777;47.156;8.326;2022-10-03T02:03:16;13.40;99.90
1568;DHT22;777;47.156;8.326;2022-10-03T02:05:53;13.40;99.90
1568;DHT22;777;47.156;8.326;2022-10-03T02:08:34;13.40;99.90
1568;DHT22;777;47.156;8.326;2022-10-03T02:11:05;13.40;99.90
1568;DHT22;777;47.156;8.326;2022-10-03T02:13:41;13.30;99.90
1568;DHT22;777;47.156;8.326;2022-10-03T02:16:19;13.30;99.90
1568;DHT22;777;47.156;8.326;2022-10-03T02:18:52;13.20;99.90
1568;DHT22;777;47.156;8.326;2022-10-03T02:21:23;13.20;99.90
1568;DHT22;777;47.156;8.326;2022-10-03T02:24:07;13.20;99.90
1568;DHT22;777;47.156;8.326;2022-10-03T02:30:04;13.10;99.90
1568;DHT22;777;47.156;8.326;2022-10-03T02:39:11;13.10;99.90
1568;DHT22;777;47.156;8.326;2022-10-03T02:45:17;13.00;99.90
1568;DHT22;777;47.156;8.326;2022-10-03T02:48:24;12.90;99.90
1568;DHT22;777;47.156;8.326;2022-10-03T02:51:15;12.80;99.90
1568;DHT22;777;47.156;8.326;2022-10-03T02:57:33;12.70;99.90
1568;DHT22;777;47.156;8.326;2022-10-03T03:00:09;12.70;99.90
1568;DHT22;777;47.156;8.326;2022-10-03T03:03:04;12.70;99.90
1568;DHT22;777;47.156;8.326;2022-10-03T03:06:05;12.70;99.90
1568;DHT22;777;47.156;8.326;2022-10-03T03:09:15;12.70;99.90
1568;DHT22;777;47.156;8.326;2022-10-03T03:15:45;12.70;99.90
1568;DHT22;777;47.156;8.326;2022-10-03T03:18:23;12.60;99.90
1568;DHT22;777;47.156;8.326;2022-10-03T03:21:04;12.60;99.90
1568;DHT22;777;47.156;8.326;2022-10-03T03:24:05;12.60;99.90
1568;DHT22;777;47.156;8.326;2022-10-03T03:26:59;12.60;99.90
1568;DHT22;777;47.156;8.326;2022-10-03T03:29:40;12.60;99.90
1568;DHT22;777;47.156;8.326;2022-10-03T03:32:18;12.60;99.90
1568;DHT22;777;47.156;8.326;2022-10-03T03:34:56;12.60;99.90
1568;DHT22;777;47.156;8.326;2022-10-03T03:37:33;12.50;99.90
1568;DHT22;777;47.156;8.326;2022-10-03T03:40:19;12.50;99.90
1568;DHT22;777;47.156;8.326;2022-10-03T03:43:12;12.40;99.90
1568;DHT22;777;47.156;8.326;2022-10-03T03:45:48;12.40;99.90
1568;DHT22;777;47.156;8.326;2022-10-03T03:51:41;12.40;99.90
1568;DHT22;777;47.156;8.326;2022-10-03T03:57:35;12.40;99.90
1568;DHT22;777;47.156;8.326;2022-10-03T04:00:12;12.30;99.90
1568;DHT22;777;47.156;8.326;2022-10-03T04:02:56;12.40;99.90
1568;DHT22;777;47.156;8.326;2022-10-03T04:05:37;12.40;99.90
1568;DHT22;777;47.156;8.326;2022-10-03T04:08:19;12.40;99.90
1568;DHT22;777;47.156;8.326;2022-10-03T04:11:00;12.40;99.90
1568;DHT22;777;47.156;8.326;2022-10-03T04:14:01;12.40;99.90
1568;DHT22;777;47.156;8.326;2022-10-03T04:16:42;12.30;99.90
1568;DHT22;777;47.156;8.326;2022-10-03T04:19:41;12.30;99.90
1568;DHT22;777;47.156;8.326;2022-10-03T04:22:25;12.30;99.90
1568;DHT22;777;47.156;8.326;2022-10-03T04:25:10;12.30;99.90
1568;DHT22;777;47.156;8.326;2022-10-03T04:31:00;12.30;99.90
1568;DHT22;777;47.156;8.326;2022-10-03T04:33:37;12.30;99.90
1568;DHT22;777;47.156;8.326;2022-10-03T04:36:24;12.30;99.90
1568;DHT22;777;47.156;8.326;2022-10-03T04:39:04;12.30;99.90
1568;DHT22;777;47.156;8.326;2022-10-03T04:41:39;12.30;99.90
1568;DHT22;777;47.156;8.326;2022-10-03T04:44:16;12.30;99.90
1568;DHT22;777;47.156;8.326;2022-10-03T04:46:51;12.30;99.90
1568;DHT22;777;47.156;8.326;2022-10-03T04:49:26;12.20;99.90
1568;DHT22;777;47.156;8.326;2022-10-03T04:52:01;12.20;99.90
1568;DHT22;777;47.156;8.326;2022-10-03T04:54:39;12.20;99.90
1568;DHT22;777;47.156;8.326;2022-10-03T04:57:23;12.10;99.90
1568;DHT22;777;47.156;8.326;2022-10-03T05:00:02;12.00;99.90
1568;DHT22;777;47.156;8.326;2022-10-03T05:02:44;12.00;99.90
1568;DHT22;777;47.156;8.326;2022-10-03T05:08:18;11.90;99.90
1568;DHT22;777;47.156;8.326;2022-10-03T05:10:56;12.00;99.90
1568;DHT22;777;47.156;8.326;2022-10-03T05:13:36;12.00;99.90
1568;DHT22;777;47.156;8.326;2022-10-03T05:16:14;12.00;99.90
1568;DHT22;777;47.156;8.326;2022-10-03T05:18:48;12.00;99.90
1568;DHT22;777;47.156;8.326;2022-10-03T05:21:26;12.00;99.90
1568;DHT22;777;47.156;8.326;2022-10-03T05:24:02;12.00;99.90
1568;DHT22;777;47.156;8.326;2022-10-03T05:26:42;12.00;99.90
1568;DHT22;777;47.156;8.326;2022-10-03T05:29:18;12.10;99.90
1568;DHT22;777;47.156;8.326;2022-10-03T05:31:48;12.00;99.90
1568;DHT22;777;47.156;8.326;2022-10-03T05:34:26;12.00;99.90
1568;DHT22;777;47.156;8.326;2022-10-03T05:37:17;12.10;99.90
1568;DHT22;777;47.156;8.326;2022-10-03T05:39:55;12.10;99.90
1568;DHT22;777;47.156;8.326;2022-10-03T05:42:38;12.10;99.90
1568;DHT22;777;47.156;8.326;2022-10-03T05:45:21;12.10;99.90
1568;DHT22;777;47.156;8.326;2022-10-03T05:48:07;12.20;99.90
1568;DHT22;777;47.156;8.326;2022-10-03T05:51:01;12.20;99.90
1568;DHT22;777;47.156;8.326;2022-10-03T05:53:52;12.20;99.90
1568;DHT22;777;47.156;8.326;2022-10-03T05:56:34;12.20;99.90
1568;DHT22;777;47.156;8.326;2022-10-03T05:59:35;12.20;99.90
1568;DHT22;777;47.156;8.326;2022-10-03T06:02:33;12.20;99.90
1568;DHT22;777;47.156;8.326;2022-10-03T06:05:19;12.20;99.90
1568;DHT22;777;47.156;8.326;2022-10-03T06:08:24;12.20;99.90
1568;DHT22;777;47.156;8.326;2022-10-03T06:10:59;12.30;99.90
1568;DHT22;777;47.156;8.326;2022-10-03T06:13:47;12.30;99.90
1568;DHT22;777;47.156;8.326;2022-10-03T06:16:25;12.30;99.90
1568;DHT22;777;47.156;8.326;2022-10-03T06:19:13;12.40;99.90
1568;DHT22;777;47.156;8.326;2022-10-03T06:28:35;12.40;99.90
1568;DHT22;777;47.156;8.326;2022-10-03T06:37:18;12.80;99.90
1568;DHT22;777;47.156;8.326;2022-10-03T06:49:30;13.20;99.90
1568;DHT22;777;47.156;8.326;2022-10-03T06:52:21;13.40;99.90
1568;DHT22;777;47.156;8.326;2022-10-03T06:55:18;13.50;99.90
1568;DHT22;777;47.156;8.326;2022-10-03T07:01:12;13.90;99.90
1568;DHT22;777;47.156;8.326;2022-10-03T07:04:06;14.00;99.90
1568;DHT22;777;47.156;8.326;2022-10-03T07:07:03;14.20;99.90
1568;DHT22;777;47.156;8.326;2022-10-03T07:10:02;14.30;99.90
1568;DHT22;777;47.156;8.326;2022-10-03T07:12:48;14.50;99.90
1568;DHT22;777;47.156;8.326;2022-10-03T07:21:28;14.90;99.90
1568;DHT22;777;47.156;8.326;2022-10-03T07:24:14;15.00;99.90
1568;DHT22;777;47.156;8.326;2022-10-03T07:27:12;15.10;99.90
1568;DHT22;777;47.156;8.326;2022-10-03T07:30:02;15.30;99.90
1568;DHT22;777;47.156;8.326;2022-10-03T07:32:56;15.60;99.90
1568;DHT22;777;47.156;8.326;2022-10-03T07:35:41;15.60;99.90
1568;DHT22;777;47.156;8.326;2022-10-03T07:38:52;15.50;99.90
1568;DHT22;777;47.156;8.326;2022-10-03T07:41:52;15.30;99.90
1568;DHT22;777;47.156;8.326;2022-10-03T07:48:09;14.80;99.90
1568;DHT22;777;47.156;8.326;2022-10-03T07:50:56;14.90;99.90
1568;DHT22;777;47.156;8.326;2022-10-03T07:53:46;14.90;99.90
1568;DHT22;777;47.156;8.326;2022-10-03T07:56:34;14.90;99.90
1568;DHT22;777;47.156;8.326;2022-10-03T07:59:26;15.20;99.90
1568;DHT22;777;47.156;8.326;2022-10-03T08:02:15;15.50;99.90
1568;DHT22;777;47.156;8.326;2022-10-03T08:05:05;15.80;99.90
1568;DHT22;777;47.156;8.326;2022-10-03T08:08:00;16.00;99.90
1568;DHT22;777;47.156;8.326;2022-10-03T08:13:49;16.00;99.90
1568;DHT22;777;47.156;8.326;2022-10-03T08:16:40;15.50;99.90
1568;DHT22;777;47.156;8.326;2022-10-03T08:19:24;15.50;99.90
1568;DHT22;777;47.156;8.326;2022-10-03T08:22:05;15.80;99.90
1568;DHT22;777;47.156;8.326;2022-10-03T08:25:05;15.60;99.90
1568;DHT22;777;47.156;8.326;2022-10-03T08:27:58;15.20;99.90
1568;DHT22;777;47.156;8.326;2022-10-03T08:30:34;15.00;99.90
1568;DHT22;777;47.156;8.326;2022-10-03T08:33:40;15.10;99.90
1568;DHT22;777;47.156;8.326;2022-10-03T08:45:02;15.00;99.90
1568;DHT22;777;47.156;8.326;2022-10-03T08:48:01;14.80;99.90
1568;DHT22;777;47.156;8.326;2022-10-03T08:50:46;15.10;99.90
1568;DHT22;777;47.156;8.326;2022-10-03T08:53:50;15.80;99.90
1568;DHT22;777;47.156;8.326;2022-10-03T08:56:22;15.50;99.90
1568;DHT22;777;47.156;8.326;2022-10-03T09:02:19;16.40;99.90
1568;DHT22;777;47.156;8.326;2022-10-03T09:05:19;17.10;99.90
1568;DHT22;777;47.156;8.326;2022-10-03T09:11:32;18.30;99.90
1568;DHT22;777;47.156;8.326;2022-10-03T09:14:31;17.70;99.90
1568;DHT22;777;47.156;8.326;2022-10-03T09:17:37;18.20;99.90
1568;DHT22;777;47.156;8.326;2022-10-03T09:26:42;18.10;99.90
1568;DHT22;777;47.156;8.326;2022-10-03T09:29:32;18.50;99.90
1568;DHT22;777;47.156;8.326;2022-10-03T09:44:52;18.90;99.90
1568;DHT22;777;47.156;8.326;2022-10-03T09:48:06;18.80;99.90
1568;DHT22;777;47.156;8.326;2022-10-03T09:54:24;19.00;99.90
1568;DHT22;777;47.156;8.326;2022-10-03T09:57:19;20.10;99.90
1568;DHT22;777;47.156;8.326;2022-10-03T10:00:07;21.60;99.90
1568;DHT22;777;47.156;8.326;2022-10-03T10:06:15;20.00;99.90
1568;DHT22;777;47.156;8.326;2022-10-03T10:12:17;22.10;99.90
1568;DHT22;777;47.156;8.326;2022-10-03T10:18:32;21.40;99.90
1568;DHT22;777;47.156;8.326;2022-10-03T10:24:48;20.50;99.90
1568;DHT22;777;47.156;8.326;2022-10-03T10:27:44;20.60;99.90
1568;DHT22;777;47.156;8.326;2022-10-03T10:30:25;22.30;99.90
1568;DHT22;777;47.156;8.326;2022-10-03T10:33:42;21.90;99.90
1568;DHT22;777;47.156;8.326;2022-10-03T10:37:01;22.10;99.90
1568;DHT22;777;47.156;8.326;2022-10-03T10:40:22;24.00;99.90
1568;DHT22;777;47.156;8.326;2022-10-03T10:43:38;23.50;99.90
1568;DHT22;777;47.156;8.326;2022-10-03T10:49:43;22.90;99.90
1568;DHT22;777;47.156;8.326;2022-10-03T10:52:39;23.10;99.90
1568;DHT22;777;47.156;8.326;2022-10-03T10:55:38;23.70;99.90
1568;DHT22;777;47.156;8.326;2022-10-03T10:59:11;23.90;99.90
1568;DHT22;777;47.156;8.326;2022-10-03T11:02:22;23.00;99.90
1568;DHT22;777;47.156;8.326;2022-10-03T11:05:38;23.80;99.90
1568;DHT22;777;47.156;8.326;2022-10-03T11:17:59;19.80;99.90
1568;DHT22;777;47.156;8.326;2022-10-03T11:21:05;18.80;99.90
1568;DHT22;777;47.156;8.326;2022-10-03T11:24:03;17.80;99.90
1568;DHT22;777;47.156;8.326;2022-10-03T11:27:02;17.30;99.90
1568;DHT22;777;47.156;8.326;2022-10-03T11:29:59;17.80;99.90
1568;DHT22;777;47.156;8.326;2022-10-03T11:38:53;19.20;99.90
1568;DHT22;777;47.156;8.326;2022-10-03T11:41:34;19.20;99.90
1568;DHT22;777;47.156;8.326;2022-10-03T11:44:16;19.00;99.90
1568;DHT22;777;47.156;8.326;2022-10-03T11:47:15;19.20;99.90
1568;DHT22;777;47.156;8.326;2022-10-03T11:52:58;18.00;99.90
1568;DHT22;777;47.156;8.326;2022-10-03T11:55:37;18.30;99.90
1568;DHT22;777;47.156;8.326;2022-10-03T11:58:26;18.50;99.90
1568;DHT22;777;47.156;8.326;2022-10-03T12:01:09;18.70;99.90
1568;DHT22;777;47.156;8.326;2022-10-03T12:03:48;18.50;99.90
1568;DHT22;777;47.156;8.326;2022-10-03T12:06:36;17.50;99.90
1568;DHT22;777;47.156;8.326;2022-10-03T12:09:28;17.70;99.90
1568;DHT22;777;47.156;8.326;2022-10-03T12:12:04;17.60;99.90
1568;DHT22;777;47.156;8.326;2022-10-03T12:14:40;17.30;99.90
1568;DHT22;777;47.156;8.326;2022-10-03T12:17:13;17.50;99.90
1568;DHT22;777;47.156;8.326;2022-10-03T12:19:55;17.40;99.90
1568;DHT22;777;47.156;8.326;2022-10-03T12:22:35;17.70;99.90
1568;DHT22;777;47.156;8.326;2022-10-03T12:25:17;17.40;99.90
1568;DHT22;777;47.156;8.326;2022-10-03T12:27:52;17.60;99.90
1568;DHT22;777;47.156;8.326;2022-10-03T12:30:23;17.80;99.90
1568;DHT22;777;47.156;8.326;2022-10-03T12:33:03;18.00;99.90
1568;DHT22;777;47.156;8.326;2022-10-03T12:35:40;17.90;99.90
1568;DHT22;777;47.156;8.326;2022-10-03T12:38:24;17.50;99.90
1568;DHT22;777;47.156;8.326;2022-10-03T12:41:07;17.60;99.90
1568;DHT22;777;47.156;8.326;2022-10-03T12:43:48;17.80;99.90
1568;DHT22;777;47.156;8.326;2022-10-03T12:46:28;16.90;99.90
1568;DHT22;777;47.156;8.326;2022-10-03T12:49:02;16.60;99.90
1568;DHT22;777;47.156;8.326;2022-10-03T12:51:50;16.20;99.90
1568;DHT22;777;47.156;8.326;2022-10-03T12:54:41;15.80;99.90
1568;DHT22;777;47.156;8.326;2022-10-03T13:03:21;15.90;99.90
1568;DHT22;777;47.156;8.326;2022-10-03T13:09:12;16.00;99.90
1568;DHT22;777;47.156;8.326;2022-10-03T13:11:52;15.90;99.90
1568;DHT22;777;47.156;8.326;2022-10-03T13:17:36;15.90;99.90
1568;DHT22;777;47.156;8.326;2022-10-03T13:20:24;16.00;99.90
1568;DHT22;777;47.156;8.326;2022-10-03T13:23:12;16.20;99.90
1568;DHT22;777;47.156;8.326;2022-10-03T13:25:52;16.00;99.90
1568;DHT22;777;47.156;8.326;2022-10-03T13:28:34;15.80;99.90
1568;DHT22;777;47.156;8.326;2022-10-03T13:31:18;15.90;99.90
1568;DHT22;777;47.156;8.326;2022-10-03T13:33:53;15.80;99.90
1568;DHT22;777;47.156;8.326;2022-10-03T13:36:33;15.90;99.90
1568;DHT22;777;47.156;8.326;2022-10-03T13:39:23;16.10;99.90
1568;DHT22;777;47.156;8.326;2022-10-03T13:42:10;16.00;99.90
1568;DHT22;777;47.156;8.326;2022-10-03T13:44:46;15.80;99.90
1568;DHT22;777;47.156;8.326;2022-10-03T13:47:42;15.80;99.90
1568;DHT22;777;47.156;8.326;2022-10-03T13:50:17;15.80;99.90
1568;DHT22;777;47.156;8.326;2022-10-03T13:52:54;15.80;99.90
1568;DHT22;777;47.156;8.326;2022-10-03T13:55:31;15.70;99.90
1568;DHT22;777;47.156;8.326;2022-10-03T13:58:24;15.50;99.90
1568;DHT22;777;47.156;8.326;2022-10-03T14:01:10;15.50;99.90
1568;DHT22;777;47.156;8.326;2022-10-03T14:03:58;15.50;99.90
1568;DHT22;777;47.156;8.326;2022-10-03T14:06:34;15.50;99.90
1568;DHT22;777;47.156;8.326;2022-10-03T14:09:21;15.70;99.90
1568;DHT22;777;47.156;8.326;2022-10-03T14:11:57;15.70;99.90
1568;DHT22;777;47.156;8.326;2022-10-03T14:14:53;15.60;99.90
1568;DHT22;777;47.156;8.326;2022-10-03T14:17:30;15.60;99.90
1568;DHT22;777;47.156;8.326;2022-10-03T14:20:13;15.60;99.90
1568;DHT22;777;47.156;8.326;2022-10-03T14:22:59;15.50;99.90
1568;DHT22;777;47.156;8.326;2022-10-03T14:25:32;15.50;99.90
1568;DHT22;777;47.156;8.326;2022-10-03T14:28:13;15.40;99.90
1568;DHT22;777;47.156;8.326;2022-10-03T14:30:58;15.50;99.90
1568;DHT22;777;47.156;8.326;2022-10-03T14:33:33;15.50;99.90
1568;DHT22;777;47.156;8.326;2022-10-03T14:36:20;15.60;99.90
1568;DHT22;777;47.156;8.326;2022-10-03T14:39:15;15.60;99.90
1568;DHT22;777;47.156;8.326;2022-10-03T14:44:58;15.70;99.90
1568;DHT22;777;47.156;8.326;2022-10-03T14:47:49;15.70;99.90
1568;DHT22;777;47.156;8.326;2022-10-03T14:50:19;15.80;99.90
1568;DHT22;777;47.156;8.326;2022-10-03T14:52:51;15.80;99.90
1568;DHT22;777;47.156;8.326;2022-10-03T14:55:45;15.90;99.90
1568;DHT22;777;47.156;8.326;2022-10-03T14:58:17;16.10;99.90
1568;DHT22;777;47.156;8.326;2022-10-03T15:00:46;15.90;99.90
1568;DHT22;777;47.156;8.326;2022-10-03T15:03:40;15.80;99.90
1568;DHT22;777;47.156;8.326;2022-10-03T15:06:35;15.70;99.90
1568;DHT22;777;47.156;8.326;2022-10-03T15:09:09;15.70;99.90
1568;DHT22;777;47.156;8.326;2022-10-03T15:11:44;15.60;99.90
1568;DHT22;777;47.156;8.326;2022-10-03T15:14:12;15.50;99.90
1568;DHT22;777;47.156;8.326;2022-10-03T15:16:55;15.40;99.90
1568;DHT22;777;47.156;8.326;2022-10-03T15:19:29;15.40;99.90
1568;DHT22;777;47.156;8.326;2022-10-03T15:22:03;15.30;99.90
1568;DHT22;777;47.156;8.326;2022-10-03T15:24:44;15.30;99.90
1568;DHT22;777;47.156;8.326;2022-10-03T15:27:39;15.30;99.90
1568;DHT22;777;47.156;8.326;2022-10-03T15:30:19;15.10;99.90
1568;DHT22;777;47.156;8.326;2022-10-03T15:32:50;15.20;99.90
1568;DHT22;777;47.156;8.326;2022-10-03T15:35:32;15.40;99.90
1568;DHT22;777;47.156;8.326;2022-10-03T15:38:10;15.40;99.90
1568;DHT22;777;47.156;8.326;2022-10-03T15:40:50;15.40;99.90
1568;DHT22;777;47.156;8.326;2022-10-03T15:43:44;15.50;99.90
1568;DHT22;777;47.156;8.326;2022-10-03T15:46:27;15.60;99.90
1568;DHT22;777;47.156;8.326;2022-10-03T15:48:55;15.60;99.90
1568;DHT22;777;47.156;8.326;2022-10-03T15:51:52;15.60;99.90
1568;DHT22;777;47.156;8.326;2022-10-03T15:54:26;15.70;99.90
1568;DHT22;777;47.156;8.326;2022-10-03T15:56:58;15.70;99.90
1568;DHT22;777;47.156;8.326;2022-10-03T15:59:29;15.70;99.90
1568;DHT22;777;47.156;8.326;2022-10-03T16:02:02;15.70;99.90
1568;DHT22;777;47.156;8.326;2022-10-03T16:04:33;15.50;99.90
1568;DHT22;777;47.156;8.326;2022-10-03T16:07:07;15.50;99.90
1568;DHT22;777;47.156;8.326;2022-10-03T16:09:46;15.60;99.90
1568;DHT22;777;47.156;8.326;2022-10-03T16:12:44;15.50;99.90
1568;DHT22;777;47.156;8.326;2022-10-03T16:15:18;15.50;99.90
1568;DHT22;777;47.156;8.326;2022-10-03T16:17:47;15.50;99.90
1568;DHT22;777;47.156;8.326;2022-10-03T16:20:23;15.60;99.90
1568;DHT22;777;47.156;8.326;2022-10-03T16:22:54;15.50;99.90
1568;DHT22;777;47.156;8.326;2022-10-03T16:25:43;15.50;99.90
1568;DHT22;777;47.156;8.326;2022-10-03T16:28:14;15.40;99.90
1568;DHT22;777;47.156;8.326;2022-10-03T16:30:46;15.40;99.90
1568;DHT22;777;47.156;8.326;2022-10-03T16:33:19;15.40;99.90
1568;DHT22;777;47.156;8.326;2022-10-03T16:35:52;15.40;99.90
1568;DHT22;777;47.156;8.326;2022-10-03T16:38:23;15.40;99.90
1568;DHT22;777;47.156;8.326;2022-10-03T16:40:59;15.40;99.90
1568;DHT22;777;47.156;8.326;2022-10-03T16:43:30;15.40;99.90
1568;DHT22;777;47.156;8.326;2022-10-03T16:45:59;15.30;99.90
1568;DHT22;777;47.156;8.326;2022-10-03T16:48:28;15.30;99.90
1568;DHT22;777;47.156;8.326;2022-10-03T16:51:18;15.20;99.90
1568;DHT22;777;47.156;8.326;2022-10-03T16:53:49;15.10;99.90
1568;DHT22;777;47.156;8.326;2022-10-03T16:56:21;15.10;99.90
1568;DHT22;777;47.156;8.326;2022-10-03T16:58:51;15.10;99.90
1568;DHT22;777;47.156;8.326;2022-10-03T17:01:30;15.00;99.90
1568;DHT22;777;47.156;8.326;2022-10-03T17:04:12;14.90;99.90
1568;DHT22;777;47.156;8.326;2022-10-03T17:06:44;14.90;99.90
1568;DHT22;777;47.156;8.326;2022-10-03T17:09:20;14.80;99.90
1568;DHT22;777;47.156;8.326;2022-10-03T17:11:52;14.70;99.90
1568;DHT22;777;47.156;8.326;2022-10-03T17:14:21;14.60;99.90
1568;DHT22;777;47.156;8.326;2022-10-03T17:16:53;14.60;99.90
1568;DHT22;777;47.156;8.326;2022-10-03T17:19:30;14.50;99.90
1568;DHT22;777;47.156;8.326;2022-10-03T17:22:04;14.50;99.90
1568;DHT22;777;47.156;8.326;2022-10-03T17:24:41;14.40;99.90
1568;DHT22;777;47.156;8.326;2022-10-03T17:27:15;14.40;99.90
1568;DHT22;777;47.156;8.326;2022-10-03T17:29:46;14.20;99.90
1568;DHT22;777;47.156;8.326;2022-10-03T17:32:20;14.20;99.90
1568;DHT22;777;47.156;8.326;2022-10-03T17:34:53;14.20;99.90
1568;DHT22;777;47.156;8.326;2022-10-03T17:40:26;14.20;99.90
1568;DHT22;777;47.156;8.326;2022-10-03T17:42:58;14.10;99.90
1568;DHT22;777;47.156;8.326;2022-10-03T17:45:34;14.20;99.90
1568;DHT22;777;47.156;8.326;2022-10-03T17:48:11;14.20;99.90
1568;DHT22;777;47.156;8.326;2022-10-03T17:50:51;14.20;99.90
1568;DHT22;777;47.156;8.326;2022-10-03T17:53:21;14.20;99.90
1568;DHT22;777;47.156;8.326;2022-10-03T17:55:56;14.10;99.90
1568;DHT22;777;47.156;8.326;2022-10-03T17:58:26;14.10;99.90
1568;DHT22;777;47.156;8.326;2022-10-03T18:01:06;14.10;99.90
1568;DHT22;777;47.156;8.326;2022-10-03T18:03:40;14.10;99.90
1568;DHT22;777;47.156;8.326;2022-10-03T18:06:44;14.10;99.90
1568;DHT22;777;47.156;8.326;2022-10-03T18:09:24;14.10;99.90
1568;DHT22;777;47.156;8.326;2022-10-03T18:12:01;14.10;99.90
1568;DHT22;777;47.156;8.326;2022-10-03T18:14:39;14.10;99.90
1568;DHT22;777;47.156;8.326;2022-10-03T18:17:12;14.10;99.90
1568;DHT22;777;47.156;8.326;2022-10-03T18:19:54;14.00;99.90
1568;DHT22;777;47.156;8.326;2022-10-03T18:22:29;14.00;99.90
1568;DHT22;777;47.156;8.326;2022-10-03T18:25:06;14.00;99.90
1568;DHT22;777;47.156;8.326;2022-10-03T18:28:02;14.00;99.90
1568;DHT22;777;47.156;8.326;2022-10-03T18:30:33;14.00;99.90
1568;DHT22;777;47.156;8.326;2022-10-03T18:33:13;13.90;99.90
1568;DHT22;777;47.156;8.326;2022-10-03T18:35:43;14.00;99.90
1568;DHT22;777;47.156;8.326;2022-10-03T18:38:13;14.00;99.90
1568;DHT22;777;47.156;8.326;2022-10-03T18:40:48;13.90;99.90
1568;DHT22;777;47.156;8.326;2022-10-03T18:43:25;14.00;99.90
1568;DHT22;777;47.156;8.326;2022-10-03T18:45:58;13.90;99.90
1568;DHT22;777;47.156;8.326;2022-10-03T18:48:32;13.90;99.90
1568;DHT22;777;47.156;8.326;2022-10-03T18:51:14;13.90;99.90
1568;DHT22;777;47.156;8.326;2022-10-03T18:53:45;13.90;99.90
1568;DHT22;777;47.156;8.326;2022-10-03T18:56:20;13.90;99.90
1568;DHT22;777;47.156;8.326;2022-10-03T18:59:06;13.80;99.90
1568;DHT22;777;47.156;8.326;2022-10-03T19:01:46;13.80;99.90
1568;DHT22;777;47.156;8.326;2022-10-03T19:04:22;13.80;99.90
1568;DHT22;777;47.156;8.326;2022-10-03T19:06:54;13.80;99.90
1568;DHT22;777;47.156;8.326;2022-10-03T19:09:24;13.70;99.90
1568;DHT22;777;47.156;8.326;2022-10-03T19:11:55;13.70;99.90
1568;DHT22;777;47.156;8.326;2022-10-03T19:14:32;13.50;99.90
1568;DHT22;777;47.156;8.326;2022-10-03T19:17:18;13.50;99.90
1568;DHT22;777;47.156;8.326;2022-10-03T19:19:51;13.50;99.90
1568;DHT22;777;47.156;8.326;2022-10-03T19:22:24;13.50;99.90
1568;DHT22;777;47.156;8.326;2022-10-03T19:24:51;13.50;99.90
1568;DHT22;777;47.156;8.326;2022-10-03T19:27:23;13.50;99.90
1568;DHT22;777;47.156;8.326;2022-10-03T19:29:54;13.50;99.90
1568;DHT22;777;47.156;8.326;2022-10-03T19:32:27;13.60;99.90
1568;DHT22;777;47.156;8.326;2022-10-03T19:34:58;13.60;99.90
1568;DHT22;777;47.156;8.326;2022-10-03T19:37:38;13.60;99.90
1568;DHT22;777;47.156;8.326;2022-10-03T19:40:29;13.60;99.90
1568;DHT22;777;47.156;8.326;2022-10-03T19:43:16;13.60;99.90
1568;DHT22;777;47.156;8.326;2022-10-03T19:45:52;13.60;99.90
1568;DHT22;777;47.156;8.326;2022-10-03T19:48:27;13.70;99.90
1568;DHT22;777;47.156;8.326;2022-10-03T19:50:54;13.60;99.90
1568;DHT22;777;47.156;8.326;2022-10-03T19:53:21;13.60;99.90
1568;DHT22;777;47.156;8.326;2022-10-03T19:55:49;13.60;99.90
1568;DHT22;777;47.156;8.326;2022-10-03T19:58:20;13.60;99.90
1568;DHT22;777;47.156;8.326;2022-10-03T20:00:52;13.60;99.90
1568;DHT22;777;47.156;8.326;2022-10-03T20:03:24;13.60;99.90
1568;DHT22;777;47.156;8.326;2022-10-03T20:05:59;13.60;99.90
1568;DHT22;777;47.156;8.326;2022-10-03T20:08:31;13.50;99.90
1568;DHT22;777;47.156;8.326;2022-10-03T20:11:17;13.50;99.90
1568;DHT22;777;47.156;8.326;2022-10-03T20:13:48;13.60;99.90
1568;DHT22;777;47.156;8.326;2022-10-03T20:16:18;13.50;99.90
1568;DHT22;777;47.156;8.326;2022-10-03T20:18:48;13.50;99.90
1568;DHT22;777;47.156;8.326;2022-10-03T20:21:18;13.60;99.90
1568;DHT22;777;47.156;8.326;2022-10-03T20:23:46;13.50;99.90
1568;DHT22;777;47.156;8.326;2022-10-03T20:26:21;13.50;99.90
1568;DHT22;777;47.156;8.326;2022-10-03T20:29:05;13.50;99.90
1568;DHT22;777;47.156;8.326;2022-10-03T20:31:39;13.50;99.90
1568;DHT22;777;47.156;8.326;2022-10-03T20:34:12;13.50;99.90
1568;DHT22;777;47.156;8.326;2022-10-03T20:36:40;13.40;99.90
1568;DHT22;777;47.156;8.326;2022-10-03T20:39:12;13.40;99.90
1568;DHT22;777;47.156;8.326;2022-10-03T20:41:56;13.40;99.90
1568;DHT22;777;47.156;8.326;2022-10-03T20:47:52;13.20;99.90
1568;DHT22;777;47.156;8.326;2022-10-03T20:50:25;13.20;99.90
1568;DHT22;777;47.156;8.326;2022-10-03T20:52:57;13.10;99.90